createdAt,value
2023-04-19T00:00:14.579Z,2.70
2023-04-19T00:03:03.077Z,2.90
2023-04-19T00:05:31.340Z,2.80
2023-04-19T00:07:59.809Z,2.50
2023-04-19T00:10:27.625Z,3.00
2023-04-19T00:12:55.592Z,2.70
2023-04-19T00:15:23.545Z,2.70
2023-04-19T00:17:51.619Z,2.40
2023-04-19T00:20:21.210Z,2.10
2023-04-19T00:22:48.961Z,2.20
2023-04-19T00:25:16.769Z,3.00
2023-04-19T00:27:44.537Z,2.40
2023-04-19T00:30:12.877Z,2.60
2023-04-19T00:32:40.700Z,2.50
2023-04-19T00:35:09.075Z,2.50
2023-04-19T00:37:36.856Z,1.60
2023-04-19T00:40:06.404Z,2.50
2023-04-19T00:42:34.242Z,2.60
2023-04-19T00:45:02.089Z,2.50
2023-04-19T00:47:31.190Z,2.40
2023-04-19T00:49:59.329Z,2.00
2023-04-19T00:52:27.523Z,2.50
2023-04-19T00:54:55.804Z,2.10
2023-04-19T00:57:27.148Z,2.50
2023-04-19T00:59:56.315Z,2.60
2023-04-19T01:02:24.320Z,2.50
2023-04-19T01:04:52.749Z,2.00
2023-04-19T01:07:20.678Z,2.60
2023-04-19T01:09:48.516Z,2.70
2023-04-19T01:12:16.393Z,2.10
2023-04-19T01:14:44.368Z,2.70
2023-04-19T01:17:13.542Z,2.20
2023-04-19T01:19:42.260Z,2.30
2023-04-19T01:22:10.427Z,2.20
2023-04-19T01:24:38.193Z,2.90
2023-04-19T01:27:06.048Z,2.90
2023-04-19T01:29:33.797Z,2.80
2023-04-19T01:32:01.683Z,1.60
2023-04-19T01:34:29.731Z,2.80
2023-04-19T01:36:58.045Z,1.90
2023-04-19T01:39:27.264Z,2.60
2023-04-19T01:41:55.091Z,2.30
2023-04-19T01:44:22.853Z,2.00
2023-04-19T01:46:50.688Z,2.40
2023-04-19T01:49:18.632Z,2.60
2023-04-19T01:51:46.447Z,2.60
2023-04-19T01:54:14.583Z,2.40
2023-04-19T01:56:42.672Z,1.90
2023-04-19T01:59:10.953Z,1.90
2023-04-19T02:01:38.726Z,2.70
2023-04-19T02:04:07.942Z,2.10
2023-04-19T02:06:35.884Z,2.80
2023-04-19T02:09:05.298Z,2.10
2023-04-19T02:11:33.284Z,2.20
2023-04-19T02:14:01.099Z,2.10
2023-04-19T02:16:29.032Z,3.10
2023-04-19T02:18:56.866Z,2.50
2023-04-19T02:21:24.789Z,2.20
2023-04-19T02:23:52.535Z,2.30
2023-04-19T02:26:20.504Z,1.90
2023-04-19T02:28:51.121Z,2.40
2023-04-19T02:31:19.050Z,2.30
2023-04-19T02:33:47.014Z,2.90
2023-04-19T02:36:14.769Z,2.20
2023-04-19T02:38:42.523Z,1.60
2023-04-19T02:41:10.437Z,2.60
2023-04-19T02:43:40.508Z,2.20
2023-04-19T02:46:10.418Z,2.50
2023-04-19T02:48:38.240Z,2.50
2023-04-19T02:51:06.346Z,2.00
2023-04-19T02:53:34.490Z,1.90
2023-04-19T02:56:02.328Z,2.40
2023-04-19T02:58:30.191Z,2.40
2023-04-19T03:01:05.096Z,1.70
2023-04-19T03:03:32.999Z,2.50
2023-04-19T03:06:01.292Z,2.10
2023-04-19T03:08:29.409Z,2.20
2023-04-19T03:10:58.467Z,2.20
2023-04-19T03:13:26.268Z,2.70
2023-04-19T03:15:54.097Z,2.90
2023-04-19T03:18:23.473Z,2.40
2023-04-19T03:20:52.361Z,2.20
2023-04-19T03:23:20.677Z,2.50
2023-04-19T03:25:49.555Z,1.90
2023-04-19T03:28:24.864Z,2.50
2023-04-19T03:31:11.593Z,2.00
2023-04-19T03:33:40.591Z,2.60
2023-04-19T03:36:09.490Z,2.70
2023-04-19T03:38:38.650Z,2.70
2023-04-19T03:41:26.003Z,2.70
2023-04-19T03:44:02.122Z,2.10
2023-04-19T03:46:33.202Z,2.70
2023-04-19T03:49:02.618Z,2.70
2023-04-19T03:51:31.526Z,3.10
2023-04-19T03:53:59.536Z,2.30
2023-04-19T03:56:28.259Z,3.00
2023-04-19T03:58:56.480Z,2.30
2023-04-19T04:01:24.438Z,2.70
2023-04-19T04:03:53.278Z,2.60
2023-04-19T04:06:21.481Z,2.40
2023-04-19T04:08:51.704Z,2.90
2023-04-19T04:11:19.561Z,2.40
2023-04-19T04:13:50.375Z,2.70
2023-04-19T04:16:21.494Z,3.00
2023-04-19T04:18:50.032Z,2.00
2023-04-19T04:21:18.390Z,2.80
2023-04-19T04:23:49.885Z,2.70
2023-04-19T04:26:30.810Z,2.80
2023-04-19T04:29:08.656Z,2.90
2023-04-19T04:31:37.030Z,2.50
2023-04-19T04:34:06.341Z,2.50
2023-04-19T04:36:37.632Z,2.70
2023-04-19T04:39:06.284Z,3.40
2023-04-19T04:41:35.856Z,2.70
2023-04-19T04:44:12.708Z,2.70
2023-04-19T04:46:41.590Z,2.00
2023-04-19T04:49:11.029Z,3.10
2023-04-19T04:51:42.848Z,2.20
2023-04-19T04:54:10.902Z,3.60
2023-04-19T04:56:39.546Z,2.90
2023-04-19T04:59:08.203Z,2.50
2023-04-19T05:01:41.965Z,3.40
2023-04-19T05:04:10.259Z,2.90
2023-04-19T05:06:40.797Z,3.00
2023-04-19T05:09:09.453Z,3.00
2023-04-19T05:11:37.631Z,2.90
2023-04-19T05:14:06.040Z,3.70
2023-04-19T05:16:34.342Z,3.20
2023-04-19T05:19:02.506Z,4.00
2023-04-19T05:21:35.858Z,3.90
2023-04-19T05:24:05.395Z,3.50
2023-04-19T05:26:34.272Z,4.00
2023-04-19T05:29:02.707Z,4.00
2023-04-19T05:31:58.466Z,4.20
2023-04-19T05:34:36.917Z,4.40
2023-04-19T05:37:05.535Z,3.50
2023-04-19T05:39:33.557Z,3.60
2023-04-19T05:42:01.752Z,4.10
2023-04-19T05:44:29.620Z,4.70
2023-04-19T05:46:57.433Z,4.10
2023-04-19T05:49:43.312Z,3.90
2023-04-19T05:52:19.449Z,3.80
2023-04-19T05:54:51.076Z,3.80
2023-04-19T05:57:18.882Z,3.30
2023-04-19T05:59:47.210Z,3.70
2023-04-19T06:02:17.553Z,3.80
2023-04-19T06:04:45.916Z,3.70
2023-04-19T06:07:30.166Z,3.50
2023-04-19T06:09:59.545Z,3.90
2023-04-19T06:12:27.926Z,3.60
2023-04-19T06:14:55.762Z,3.50
2023-04-19T06:17:25.386Z,3.70
2023-04-19T06:19:54.689Z,2.70
2023-04-19T06:22:22.877Z,3.40
2023-04-19T06:24:50.804Z,3.20
2023-04-19T06:27:18.678Z,3.50
2023-04-19T06:29:46.469Z,3.30
2023-04-19T06:32:14.434Z,3.10
2023-04-19T06:34:42.196Z,3.50
2023-04-19T06:37:10.061Z,4.60
2023-04-19T06:39:37.925Z,4.60
2023-04-19T06:42:06.261Z,5.00
2023-04-19T06:44:34.691Z,5.10
2023-04-19T06:47:03.204Z,5.70
2023-04-19T06:49:31.488Z,4.90
2023-04-19T06:52:00.191Z,4.00
2023-04-19T06:54:28.003Z,5.00
2023-04-19T06:56:56.608Z,4.80
2023-04-19T06:59:28.127Z,5.40
2023-04-19T07:01:58.123Z,4.60
2023-04-19T07:04:26.896Z,5.60
2023-04-19T07:06:54.850Z,4.90
2023-04-19T07:09:22.680Z,4.40
2023-04-19T07:11:51.315Z,4.90
2023-04-19T07:14:19.322Z,5.60
2023-04-19T07:16:47.689Z,5.10
2023-04-19T07:19:15.976Z,5.40
2023-04-19T07:21:43.785Z,5.00
2023-04-19T07:24:11.699Z,5.70
2023-04-19T07:26:39.544Z,5.10
2023-04-19T07:29:07.405Z,37.70
2023-04-19T07:31:35.919Z,4.90
2023-04-19T07:34:03.749Z,4.80
2023-04-19T07:36:31.863Z,5.90
2023-04-19T07:38:59.627Z,5.20
2023-04-19T07:41:27.661Z,5.10
2023-04-19T07:43:55.593Z,4.90
2023-04-19T07:46:23.526Z,5.40
2023-04-19T07:48:51.446Z,4.80
2023-04-19T07:51:19.489Z,5.50
2023-04-19T07:53:48.328Z,4.90
2023-04-19T07:56:16.278Z,6.40
2023-04-19T07:58:46.761Z,5.60
2023-04-19T08:01:18.959Z,5.10
2023-04-19T08:03:47.119Z,4.60
2023-04-19T08:06:15.203Z,5.20
2023-04-19T08:08:43.228Z,5.30
2023-04-19T08:11:11.032Z,2.70
2023-04-19T08:13:40.377Z,5.20
2023-04-19T08:18:39.175Z,4.20
2023-04-19T08:21:07.499Z,4.60
2023-04-19T08:23:47.385Z,5.20
2023-04-19T08:26:16.391Z,4.20
2023-04-19T08:28:44.178Z,4.70
2023-04-19T08:31:12.024Z,6.30
2023-04-19T08:33:40.114Z,6.00
2023-04-19T08:36:08.780Z,5.90
2023-04-19T08:38:38.826Z,5.60
2023-04-19T08:41:06.749Z,4.30
2023-04-19T08:43:38.108Z,6.80
2023-04-19T08:46:08.542Z,5.60
2023-04-19T08:48:36.887Z,5.60
2023-04-19T08:51:07.085Z,6.00
2023-04-19T08:53:35.753Z,6.30
2023-04-19T08:56:15.241Z,6.20
2023-04-19T08:59:07.694Z,6.50
2023-04-19T09:01:43.638Z,4.60
2023-04-19T09:06:43.735Z,6.70
2023-04-19T09:09:35.337Z,6.20
2023-04-19T09:12:18.302Z,7.00
2023-04-19T09:15:00.632Z,4.70
2023-04-19T09:17:33.457Z,7.50
2023-04-19T09:20:02.036Z,6.90
2023-04-19T09:22:30.409Z,6.70
2023-04-19T09:27:34.030Z,7.30
2023-04-19T09:30:04.561Z,7.60
2023-04-19T09:32:48.166Z,5.50
2023-04-19T09:35:16.453Z,8.00
2023-04-19T09:38:06.360Z,5.80
2023-04-19T09:40:37.417Z,10.60
2023-04-19T09:45:46.291Z,8.20
2023-04-19T09:48:14.273Z,8.00
2023-04-19T09:51:03.663Z,9.50
2023-04-19T09:53:34.181Z,7.80
2023-04-19T09:56:04.318Z,7.70
2023-04-19T09:58:46.835Z,8.50
2023-04-19T10:01:20.809Z,19.20
2023-04-19T10:03:50.987Z,7.40
2023-04-19T10:06:45.713Z,9.00
2023-04-19T10:09:19.279Z,7.80
2023-04-19T10:11:56.539Z,10.30
2023-04-19T10:14:36.112Z,11.10
2023-04-19T10:17:04.182Z,9.50
2023-04-19T10:19:36.600Z,8.00
2023-04-19T10:22:07.037Z,10.60
2023-04-19T10:24:34.855Z,11.60
2023-04-19T10:27:02.842Z,10.20
2023-04-19T10:30:00.252Z,9.40
2023-04-19T10:32:39.168Z,10.70
2023-04-19T10:35:38.202Z,8.30
2023-04-19T10:38:21.142Z,8.50
2023-04-19T10:40:52.295Z,8.10
2023-04-19T10:43:26.921Z,9.70
2023-04-19T10:45:58.720Z,8.50
2023-04-19T10:48:27.094Z,8.90
2023-04-19T10:51:20.310Z,9.10
2023-04-19T10:53:55.352Z,8.90
2023-04-19T10:56:41.043Z,8.20
2023-04-19T10:59:15.437Z,9.50
2023-04-19T11:01:54.210Z,7.00
2023-04-19T11:04:32.362Z,9.80
2023-04-19T11:07:06.161Z,9.90
2023-04-19T11:09:42.277Z,10.20
2023-04-19T11:12:16.875Z,10.00
2023-04-19T11:14:45.904Z,10.30
2023-04-19T11:17:26.976Z,12.00
2023-04-19T11:19:59.248Z,9.70
2023-04-19T11:22:34.704Z,10.30
2023-04-19T11:25:20.682Z,10.70
2023-04-19T11:27:52.243Z,10.80
2023-04-19T11:30:28.888Z,9.00
2023-04-19T11:32:57.752Z,11.50
2023-04-19T11:35:28.365Z,13.20
2023-04-19T11:37:58.564Z,10.80
2023-04-19T11:40:26.603Z,11.80
2023-04-19T11:42:58.047Z,11.70
2023-04-19T11:45:35.421Z,11.60
2023-04-19T11:48:07.979Z,10.90
2023-04-19T11:50:43.982Z,10.20
2023-04-19T11:53:17.120Z,9.40
2023-04-19T11:55:46.639Z,10.50
2023-04-19T11:58:28.909Z,9.60
2023-04-19T12:01:11.346Z,8.90
2023-04-19T12:03:54.237Z,8.50
2023-04-19T12:08:55.757Z,9.60
2023-04-19T12:11:26.778Z,30.00
2023-04-19T12:14:16.685Z,10.20
2023-04-19T12:16:45.495Z,8.80
2023-04-19T12:19:17.496Z,9.00
2023-04-19T12:21:47.022Z,9.80
2023-04-19T12:24:16.812Z,9.80
2023-04-19T12:27:02.465Z,9.30
2023-04-19T12:29:31.639Z,9.10
2023-04-19T12:32:03.401Z,6.00
2023-04-19T12:34:31.426Z,6.70
2023-04-19T12:36:59.379Z,9.20
2023-04-19T12:39:28.573Z,7.20
2023-04-19T12:41:57.241Z,8.50
2023-04-19T12:44:25.122Z,8.10
2023-04-19T12:46:57.293Z,8.60
2023-04-19T12:49:25.473Z,8.20
2023-04-19T12:51:55.194Z,8.80
2023-04-19T12:54:24.490Z,8.50
2023-04-19T12:56:52.577Z,8.10
2023-04-19T12:59:22.030Z,8.40
2023-04-19T13:01:50.019Z,8.40
2023-04-19T13:04:18.407Z,9.10
2023-04-19T13:06:46.806Z,8.80
2023-04-19T13:09:15.315Z,8.90
2023-04-19T13:11:43.472Z,9.00
2023-04-19T13:14:14.857Z,9.90
2023-04-19T13:16:42.781Z,17.30
2023-04-19T13:19:11.058Z,52.10
2023-04-19T13:21:38.990Z,18.00
2023-04-19T13:24:06.998Z,9.10
2023-04-19T13:26:34.983Z,9.50
2023-04-19T13:29:03.145Z,9.60
2023-04-19T13:31:31.161Z,9.80
2023-04-19T13:34:00.422Z,9.20
2023-04-19T13:36:28.390Z,10.10
2023-04-19T13:38:56.288Z,9.10
2023-04-19T13:41:24.092Z,9.00
2023-04-19T13:43:51.976Z,8.80
2023-04-19T13:46:19.775Z,9.50
2023-04-19T13:48:47.571Z,8.50
2023-04-19T13:51:15.405Z,10.20
2023-04-19T13:53:43.279Z,10.50
2023-04-19T13:56:21.559Z,10.60
2023-04-19T13:58:51.909Z,10.90
2023-04-19T14:01:19.776Z,8.90
2023-04-19T14:03:47.728Z,10.70
2023-04-19T14:06:16.826Z,9.30
2023-04-19T14:08:44.835Z,10.70
2023-04-19T14:11:12.683Z,9.90
2023-04-19T14:13:40.885Z,9.60
2023-04-19T14:16:13.090Z,9.30
2023-04-19T14:18:42.831Z,9.20
2023-04-19T14:21:10.888Z,10.20
2023-04-19T14:23:38.693Z,9.70
2023-04-19T14:26:06.581Z,8.60
2023-04-19T14:28:34.341Z,8.20
2023-04-19T14:31:02.545Z,8.80
2023-04-19T14:33:31.196Z,9.70
2023-04-19T14:35:58.970Z,8.50
2023-04-19T14:38:26.785Z,7.90
2023-04-19T14:40:54.628Z,10.00
2023-04-19T14:43:22.384Z,7.50
2023-04-19T14:45:51.946Z,7.50
2023-04-19T14:48:22.119Z,6.70
2023-04-19T14:50:50.954Z,7.40
2023-04-19T14:53:18.776Z,7.20
2023-04-19T14:55:46.600Z,8.20
2023-04-19T14:58:14.494Z,7.40
2023-04-19T15:00:42.617Z,7.90
2023-04-19T15:03:10.544Z,8.40
2023-04-19T15:05:38.594Z,8.10
2023-04-19T15:08:09.139Z,9.00
2023-04-19T15:10:42.599Z,11.90
2023-04-19T15:13:10.377Z,7.50
2023-04-19T15:15:38.279Z,8.00
2023-04-19T15:18:06.332Z,7.80
2023-04-19T15:20:34.437Z,7.90
2023-04-19T15:23:02.394Z,13.90
2023-04-19T15:25:30.895Z,14.30
2023-04-19T15:27:58.710Z,9.00
2023-04-19T15:30:27.007Z,8.70
2023-04-19T15:32:54.929Z,8.30
2023-04-19T15:35:23.253Z,8.30
2023-04-19T15:37:51.227Z,9.70
2023-04-19T15:40:21.310Z,11.50
2023-04-19T15:42:49.289Z,9.80
2023-04-19T15:45:17.384Z,8.80
2023-04-19T15:47:47.486Z,8.70
2023-04-19T15:50:15.374Z,9.20
2023-04-19T15:52:43.266Z,9.90
2023-04-19T15:55:11.099Z,10.10
2023-04-19T15:57:39.000Z,9.30
2023-04-19T16:00:09.380Z,9.70
2023-04-19T16:02:40.951Z,9.80
2023-04-19T16:05:09.410Z,10.10
2023-04-19T16:07:37.254Z,11.60
2023-04-19T16:10:06.013Z,11.50
2023-04-19T16:12:33.900Z,13.10
2023-04-19T16:15:02.270Z,11.50
2023-04-19T16:17:30.551Z,11.80
2023-04-19T16:19:58.910Z,13.30
2023-04-19T16:22:26.717Z,12.70
2023-04-19T16:24:54.528Z,11.70
2023-04-19T16:27:22.428Z,12.60
2023-04-19T16:29:50.299Z,12.90
2023-04-19T16:32:18.262Z,13.50
2023-04-19T16:34:46.506Z,13.70
2023-04-19T16:37:16.049Z,12.90
2023-04-19T16:39:43.925Z,14.40
2023-04-19T16:42:11.774Z,14.80
2023-04-19T16:44:39.560Z,15.20
2023-04-19T16:47:07.408Z,15.90
2023-04-19T16:49:35.205Z,15.20
2023-04-19T16:52:03.094Z,14.20
2023-04-19T16:54:31.232Z,15.40
2023-04-19T16:56:59.016Z,16.40
2023-04-19T16:59:26.838Z,15.20
2023-04-19T17:01:59.679Z,15.90
2023-04-19T17:04:29.783Z,13.50
2023-04-19T17:06:57.928Z,14.70
2023-04-19T17:09:25.976Z,14.30
2023-04-19T17:11:54.894Z,14.30
2023-04-19T17:14:25.767Z,14.80
2023-04-19T17:16:56.153Z,14.50
2023-04-19T17:19:24.131Z,13.90
2023-04-19T17:21:54.077Z,14.30
2023-04-19T17:24:22.166Z,14.50
2023-04-19T17:26:50.175Z,16.60
2023-04-19T17:29:18.464Z,17.70
2023-04-19T17:31:46.889Z,15.90
2023-04-19T17:34:14.911Z,15.00
2023-04-19T17:36:42.806Z,15.20
2023-04-19T17:39:11.166Z,15.00
2023-04-19T17:41:39.298Z,27.00
2023-04-19T17:44:07.166Z,15.30
2023-04-19T17:46:35.138Z,20.60
2023-04-19T17:49:03.067Z,13.70
2023-04-19T17:51:33.720Z,13.60
2023-04-19T17:54:01.604Z,13.70
2023-04-19T17:56:29.437Z,13.00
2023-04-19T17:59:00.522Z,12.10
2023-04-19T18:01:29.716Z,13.80
2023-04-19T18:03:57.620Z,13.00
2023-04-19T18:06:25.820Z,14.70
2023-04-19T18:08:53.666Z,16.10
2023-04-19T18:11:21.600Z,12.70
2023-04-19T18:13:50.791Z,12.70
2023-04-19T18:16:19.578Z,12.50
2023-04-19T18:18:47.432Z,12.20
2023-04-19T18:21:16.013Z,11.10
2023-04-19T18:23:44.008Z,12.00
2023-04-19T18:26:11.830Z,11.40
2023-04-19T18:28:40.372Z,10.70
2023-04-19T18:31:09.350Z,11.10
2023-04-19T18:33:37.405Z,11.10
2023-04-19T18:36:05.580Z,11.00
2023-04-19T18:38:33.392Z,10.60
2023-04-19T18:41:01.314Z,9.20
2023-04-19T18:43:30.825Z,10.70
2023-04-19T18:46:00.268Z,10.80
2023-04-19T18:48:29.399Z,9.60
2023-04-19T18:50:57.717Z,9.20
2023-04-19T18:53:28.584Z,10.00
2023-04-19T18:55:58.060Z,10.20
2023-04-19T18:58:27.183Z,10.30
2023-04-19T19:00:56.792Z,10.00
2023-04-19T19:05:55.956Z,12.80
2023-04-19T19:08:24.068Z,10.40
2023-04-19T19:13:22.616Z,8.60
2023-04-19T19:15:50.912Z,8.40
2023-04-19T19:18:18.823Z,8.60
2023-04-19T19:20:46.741Z,7.90
2023-04-19T19:23:14.724Z,8.60
2023-04-19T19:25:42.596Z,8.50
2023-04-19T19:28:10.557Z,6.80
2023-04-19T19:30:42.756Z,7.70
2023-04-19T19:33:11.901Z,7.90
2023-04-19T19:35:40.094Z,9.70
2023-04-19T19:38:08.303Z,8.50
2023-04-19T19:40:40.839Z,10.60
2023-04-19T19:43:24.226Z,9.40
2023-04-19T19:45:52.282Z,10.10
2023-04-19T19:48:20.254Z,10.60
2023-04-19T19:51:17.329Z,10.00
2023-04-19T19:53:36.818Z,10.10
2023-04-19T19:56:12.907Z,12.50
2023-04-19T19:58:48.214Z,17.20
2023-04-19T20:01:26.939Z,15.50
2023-04-19T20:08:57.294Z,13.50
2023-04-19T20:11:25.640Z,11.70
2023-04-19T20:13:53.634Z,12.80
2023-04-19T20:16:24.268Z,13.10
2023-04-19T20:18:52.697Z,14.60
2023-04-19T20:21:20.762Z,13.70
2023-04-19T20:23:48.638Z,14.70
2023-04-19T20:26:16.396Z,13.80
2023-04-19T20:28:44.288Z,15.10
2023-04-19T20:31:12.062Z,15.90
2023-04-19T20:33:41.270Z,15.40
2023-04-19T20:36:13.907Z,16.80
2023-04-19T20:38:42.519Z,18.50
2023-04-19T20:41:11.989Z,18.20
2023-04-19T20:43:39.794Z,18.20
2023-04-19T20:46:08.271Z,17.50
2023-04-19T20:48:36.684Z,17.30
2023-04-19T20:51:04.518Z,18.40
2023-04-19T20:53:32.382Z,19.00
2023-04-19T20:56:01.218Z,19.10
2023-04-19T20:58:32.594Z,30.10
2023-04-19T21:01:00.894Z,18.60
2023-04-19T21:03:28.985Z,18.10
2023-04-19T21:05:56.968Z,18.80
2023-04-19T21:08:24.760Z,32.70
2023-04-19T21:10:52.742Z,29.40
2023-04-19T21:13:20.555Z,21.90
2023-04-19T21:15:48.975Z,22.60
2023-04-19T21:18:17.621Z,22.90
2023-04-19T21:20:46.049Z,55.70
2023-04-19T21:23:14.145Z,23.00
2023-04-19T21:25:44.250Z,22.50
2023-04-19T21:28:12.740Z,20.90
2023-04-19T21:30:43.225Z,22.50
2023-04-19T21:33:11.192Z,22.70
2023-04-19T21:35:40.186Z,23.00
2023-04-19T21:38:08.105Z,20.80
2023-04-19T21:40:38.234Z,22.80
2023-04-19T21:43:06.367Z,22.20
2023-04-19T21:45:34.269Z,21.40
2023-04-19T21:48:02.149Z,23.20
2023-04-19T21:50:33.220Z,24.70
2023-04-19T21:53:01.093Z,22.60
2023-04-19T21:55:30.160Z,20.90
2023-04-19T21:57:58.844Z,24.90
2023-04-19T22:00:26.786Z,20.90
2023-04-19T22:02:57.051Z,23.40
2023-04-19T22:05:25.333Z,22.30
2023-04-19T22:07:54.912Z,21.30
2023-04-19T22:10:24.063Z,23.10
2023-04-19T22:12:58.457Z,24.40
2023-04-19T22:15:27.872Z,23.10
2023-04-19T22:17:57.209Z,22.50
2023-04-19T22:20:26.764Z,22.90
2023-04-19T22:22:55.771Z,23.90
2023-04-19T22:25:23.704Z,24.50
2023-04-19T22:27:51.536Z,22.90
2023-04-19T22:30:19.863Z,23.10
2023-04-19T22:32:48.569Z,24.10
2023-04-19T22:35:16.395Z,24.70
2023-04-19T22:37:45.766Z,26.50
2023-04-19T22:40:14.896Z,25.70
2023-04-19T22:42:42.738Z,26.90
2023-04-19T22:45:10.801Z,26.90
2023-04-19T22:47:38.755Z,29.40
2023-04-19T22:50:08.915Z,108.40
2023-04-19T22:52:37.329Z,31.40
2023-04-19T22:55:06.834Z,26.20
2023-04-19T22:57:34.592Z,25.50
2023-04-19T23:00:05.312Z,24.40
2023-04-19T23:02:33.348Z,26.60
2023-04-19T23:05:02.144Z,25.70
2023-04-19T23:07:29.989Z,27.00
2023-04-19T23:09:57.767Z,29.00
2023-04-19T23:12:25.590Z,26.50
2023-04-19T23:14:53.397Z,23.70
2023-04-19T23:17:21.207Z,27.20
2023-04-19T23:19:49.018Z,25.20
2023-04-19T23:22:17.587Z,26.20
2023-04-19T23:24:45.496Z,27.20
2023-04-19T23:27:13.254Z,26.20
2023-04-19T23:29:41.106Z,27.00
2023-04-19T23:32:09.000Z,25.10
2023-04-19T23:34:36.788Z,27.10
2023-04-19T23:37:04.526Z,27.50
2023-04-19T23:39:32.330Z,27.90
2023-04-19T23:42:00.227Z,28.70
2023-04-19T23:44:29.585Z,29.80
2023-04-19T23:46:57.426Z,26.80
2023-04-19T23:49:25.213Z,25.80
2023-04-19T23:51:53.011Z,26.60
2023-04-19T23:54:22.456Z,27.50
2023-04-19T23:56:50.606Z,26.30
2023-04-19T23:59:19.501Z,27.20
